Menu       Accueil   X °F

Sélectionnez une autre période ( cacher cette zone )

Les unités Période Gamme personnalisée Directement à
métriques impériales les deux
par jour par semaine mensuel annuel
utiliser les deux sélecteurs de date pour une gamme personnalisée
précédente Jour
Avec cette date
par jour Résumé pour Vendredi 01 mars 2024
Temps Temp. ( °F ) Pt. de rosée ( °F ) Vent ( mph ) De Rafale ( mph ) Pression baro ( in ) Humid.( % ) Débit de pluie ( in )
Élevé48.7 48.0 13.0 SE ( 473/1245 ) 21.7 29.61 97 9.02
Moyenne45.9 43.5 4.5 SE #62/172 9.9 29.57 91 3.94
Basse42.1 39.9 -   1.9 29.50 75 -
par jour Détails du tableau pour Vendredi 01 mars 2024
Temps Temp. ( °F ) Pt. de rosée ( °F ) Vent ( mph ) De Rafale ( mph ) Pression baro ( in ) Humid.( % ) Débit de pluie ( in )
00:01 48.0 47.1 6.2 SSE 11.2 29.57 97 -
00:06 48.0 46.9 3.7 SE 11.2 29.57 97 -
00:11 48.0 47.1 6.8 SE 9.3 29.57 97 -
00:16 48.0 46.9 5.0 SE 8.1 29.57 97 -
00:21 48.0 47.3 3.7 SE 8.1 29.57 97 -
00:26 48.0 46.9 5.0 SE 9.3 29.57 97 -
00:31 48.0 47.3 3.7 SE 8.1 29.57 97 -
00:36 48.0 46.9 3.7 SE 8.1 29.56 97 -
00:41 48.2 47.3 3.7 SE 9.3 29.56 97 -
00:46 48.2 46.9 5.0 SE 8.1 29.56 97 -
00:51 48.2 47.5 3.7 SSE 9.9 29.56 97 -
00:56 48.2 46.9 3.7 SSE 9.3 29.56 97 -
01:01 48.2 47.5 3.7 SSE 9.9 29.55 97 -
01:06 48.4 48.0 3.1 SE 9.9 29.55 97 -
01:11 48.4 48.0 5.0 SSE 9.9 29.55 97 -
01:16 48.4 48.0 3.7 SSE 9.9 29.55 97 -
01:21 48.4 48.0 8.1 ESE 9.3 29.55 97 -
01:26 48.4 48.0 3.7 SSE 9.3 29.55 97 -
01:31 48.4 48.0 3.7 SE 9.3 29.55 97 -
01:36 48.4 48.0 6.2 SSE 8.1 29.55 97 -
01:41 48.4 48.0 3.1 ESE 9.9 29.55 97 -
01:46 48.4 48.0 5.0 SE 9.9 29.55 97 -
01:51 48.4 48.0 3.7 SE 9.9 29.55 97 -
01:56 48.4 48.0 3.1 SE 9.3 29.55 97 -
02:01 48.4 48.0 3.7 ESE 8.1 29.54 97 -
02:06 48.4 48.0 3.7 SE 8.1 29.54 97 -
02:11 48.4 48.0 3.1 ESE 6.8 29.54 97 -
02:16 48.4 48.0 3.1 SE 8.1 29.54 97 -
02:21 48.4 48.0 3.7 SSE 9.3 29.54 97 -
02:26 48.2 46.9 3.7 SE 9.3 29.53 97 -
02:31 48.2 47.5 3.7 SE 9.9 29.53 97 -
02:36 48.2 46.9 3.7 ESE 9.3 29.53 97 -
02:41 48.2 47.5 8.1 SE 9.3 29.53 97 -
02:46 48.2 46.9 3.1 SE 9.3 29.53 97 -
02:51 48.2 47.5 3.7 SE 11.2 29.53 97 -
02:56 48.4 48.0 3.1 SE 11.2 29.52 97 -
03:01 48.4 47.1 3.7 SE 6.8 29.52 96 -
03:06 48.4 46.9 3.7 SE 11.2 29.52 96 -
03:16 48.4 46.9 5.0 SE 9.3 29.52 96 -
03:21 48.6 47.5 3.7 SE 8.1 29.51 96 -
03:26 48.4 46.9 3.7 SSE 9.3 29.51 96 -
03:31 48.6 48.0 5.0 SE 9.9 29.51 96 -
03:36 48.6 48.0 6.2 ESE 9.9 29.51 96 -
03:41 48.6 48.0 3.7 SE 9.3 29.51 96 -
03:46 48.6 48.0 6.8 SE 8.1 29.50 96 -
03:51 48.6 48.0 3.7 SE 6.8 29.51 96 -
03:56 48.6 48.0 3.7 SSE 6.8 29.51 96 0.99
04:06 45.7 44.1 13.0 NO 21.7 29.52 94 2.01
04:11 45.0 44.1 11.2 NO 19.3 29.53 95 9.02
04:16 44.4 43.0 11.2 North 19.3 29.53 95 2.01
04:21 44.1 43.0 9.3 NO 19.9 29.54 95 4.02
04:26 43.5 43.0 8.1 ONO 19.9 29.54 96 2.01
04:31 43.5 43.0 9.3 North 19.9 29.55 96 2.01
04:41 43.5 43.0 6.2 NO 13.0 29.55 96 2.01
04:46 43.5 43.0 3.1 ONO 11.2 29.55 96 2.01
04:51 43.5 43.0 3.7 NNO 11.2 29.55 96 2.99
04:56 43.5 43.0 5.0 NNE 8.1 29.55 96 2.01
05:01 43.5 42.4 5.0 NO 8.1 29.55 96 2.01
05:06 43.3 42.1 3.1 NNO 9.9 29.55 96 0.99
05:11 43.3 42.3 5.0 NNO 11.2 29.56 96 0.99
05:16 43.3 42.1 1.9 NO 11.2 29.56 96 0.99
05:21 43.5 43.0 3.7 NO 11.2 29.57 96 0.99
05:26 43.3 42.1 3.7 North 11.2 29.57 95 0.99
05:31 43.3 42.3 3.7 NO 11.2 29.57 96 0.99
05:36 43.2 42.1 3.1 NO 11.2 29.57 95 0.99
05:41 43.2 42.1 3.7 NNO 11.8 29.57 95 0.99
05:46 43.2 42.1 3.7 ONO 11.8 29.57 95 0.99
05:51 43.2 42.1 3.7 North 11.8 29.57 95 -
05:56 43.2 42.1 3.1 NO 8.1 29.58 95 -
06:06 43.3 42.1 1.9 NO 9.3 29.58 95 -
06:11 43.3 42.1 3.1 NNO 9.3 29.58 95 -
06:16 43.2 42.1   calme 6.2 29.59 95 -
06:21 43.2 42.1 1.9 NO 6.2 29.58 95 -
06:26 43.0 42.1 1.2 SSO 6.2 29.59 95 -
06:31 42.6 41.4 1.2 SSO 1.9 29.59 95 -
06:36 42.4 41.0 1.2 SSO 3.1 29.59 95 -
06:41 42.4 41.2 1.2 SSO 3.1 29.59 95 -
06:46 42.3 41.0 1.2 SSO 3.7 29.59 95 -
06:51 42.3 41.0 3.1 SSO 5.0 29.59 95 -
06:56 42.3 41.0   calme 3.1 29.59 95 -
07:01 42.1 41.0 1.2 SSO 3.1 29.59 95 -
07:06 42.1 41.0 1.2 Sud 3.1 29.60 95 -
07:11 42.1 41.0 1.9 SSO 1.9 29.60 95 -
07:16 42.1 41.0   calme 3.7 29.60 95 -
07:21 42.1 41.0 1.2 SSO 3.7 29.60 95 -
07:26 42.1 41.0 1.2 SSO 3.1 29.61 95 -
07:31 42.1 41.0 1.2 SSO 3.7 29.61 95 -
07:36 42.3 41.0 1.2 Sud 5.0 29.61 95 -
07:41 42.3 41.0 1.9 SSO 5.0 29.61 95 -
07:46 42.3 41.0 1.9 SSO 6.2 29.61 95 -
07:51 42.3 41.0 1.9 SSE 6.2 29.61 95 -
07:56 42.1 41.0   calme 3.7 29.61 95 -
08:01 42.1 41.0 1.9 SSO 3.7 29.61 95 -
08:06 42.1 41.0 1.9 SE 5.0 29.61 95 -
08:11 42.1 41.0 1.2 ESE 5.0 29.61 95 -
08:16 42.1 41.0 1.2 SE 3.1 29.61 95 -
08:21 42.1 41.0 1.2 Sud 3.1 29.61 95 -
08:26 42.3 41.0 1.9 ESE 6.2 29.61 95 -
08:31 42.3 41.0 1.9 Sud 6.2 29.61 95 -
08:36 42.4 41.0 3.7 OSO 6.8 29.61 95 -
08:41 42.6 41.4 3.7 SE 6.8 29.61 95 -
08:46 42.8 41.0 1.2 Sud 6.8 29.61 94 -
08:51 43.0 41.4 1.9 SSO 6.8 29.61 94 -
08:56 43.3 42.1 3.1 SSO 6.8 29.61 94 -
09:01 43.3 42.1 3.1 SE 6.8 29.61 94 -
09:06 43.3 42.1 5.0 SSE 6.8 29.61 94 -
09:11 43.3 42.1 3.1 SE 6.8 29.61 94 -
09:16 43.5 42.1 6.2 ESE 6.8 29.61 93 -
09:21 43.5 42.1 3.1 SE 8.1 29.61 93 -
09:26 43.7 42.1 3.7 SSE 6.8 29.61 93 -
09:31 43.9 42.1 3.1 SSE 6.2 29.61 93 -
09:36 43.9 42.1 5.0 SE 9.3 29.61 93 -
09:41 44.1 42.1 3.7 SSE 9.3 29.61 93 -
09:46 44.1 42.1 3.1 SE 8.1 29.61 93 -
09:51 44.2 42.3 6.2 SE 8.1 29.61 93 -
09:56 44.4 42.1 3.7 SE 9.3 29.61 92 -
10:01 44.8 43.0 3.7 SE 9.3 29.61 92 -
10:11 45.0 43.0 3.7 SSE 9.3 29.61 91 -
10:21 45.1 43.0 5.0 ESE 9.9 29.60 90 -
10:26 45.5 43.0 3.7 Sud 9.9 29.60 90 -
10:31 46.0 43.2 9.3 ESE 11.2 29.60 90 -
10:36 45.9 43.0 5.0 SE 9.9 29.60 88 -
10:41 45.9 43.0 6.2 SSE 9.9 29.60 89 -
10:46 45.9 43.0 3.7 ESE 11.2 29.60 88 -
10:51 45.7 42.3 5.0 SSE 11.2 29.60 88 -
10:56 45.5 42.1 3.7 SSE 9.9 29.60 88 -
11:01 45.5 42.4 5.0 SSE 11.2 29.60 89 -
11:06 45.5 42.1 3.7 Sud 11.2 29.59 88 -
11:11 45.9 42.4 9.3 ESE 11.2 29.59 88 -
11:16 45.7 42.1 3.1 SSE 9.9 29.59 87 -
11:21 45.7 42.1 6.2 SSE 11.8 29.59 86 -
11:26 46.0 42.1 6.8 Sud 11.8 29.59 86 -
11:31 46.8 43.0 8.1 Sud 16.8 29.58 86 -
11:36 46.8 43.0 6.2 ESE 16.8 29.58 85 -
11:41 46.6 42.3 6.2 SE 11.8 29.58 85 -
11:46 46.6 42.1 3.1 ESE 11.8 29.57 85 -
11:51 46.6 42.1 9.9 SE 14.3 29.57 84 -
11:56 46.6 42.1 5.0 SE 14.3 29.57 83 -
12:01 46.8 42.1 8.1 SE 11.2 29.57 83 -
12:06 46.9 42.1 6.8 Est 13.0 29.57 82 -
12:11 47.1 42.1 6.2 SSE 13.0 29.56 82 -
12:16 47.7 42.1 5.0 SE 11.8 29.56 81 -
12:21 48.0 42.4 6.8 SE 11.8 29.56 81 -
12:26 48.2 42.1 3.7 SSE 13.0 29.55 80 -
12:31 47.8 42.1 6.8 SSE 16.2 29.55 79 -
12:36 47.8 41.0 8.1 SSE 16.2 29.55 78 -
12:41 48.4 42.8 6.8 SE 11.2 29.55 81 -
12:46 48.4 42.1 6.8 SE 11.2 29.55 77 -
12:51 47.8 41.4 11.2 SE 16.8 29.54 78 -
12:56 47.1 41.0 9.3 Est 16.8 29.54 79 -
13:01 47.3 41.4 6.8 SSE 14.3 29.54 80 -
13:06 47.7 42.1 6.8 SSE 11.8 29.53 80 -
13:11 47.8 42.1 5.0 SE 11.8 29.53 80 -
13:16 47.8 42.1 5.0 SE 14.3 29.53 80 -
13:21 47.8 42.1 6.8 ESE 14.9 29.53 80 -
13:26 48.2 42.1 8.1 SE 16.2 29.53 79 -
13:31 48.6 42.3 6.2 SE 16.2 29.53 79 -
13:36 48.7 42.1 3.7 SSE 16.2 29.52 78 -
13:41 48.6 42.1 9.3 ESE 13.0 29.53 78 -
13:46 48.4 42.1 3.1 SE 14.3 29.53 77 -
13:51 48.2 41.4 6.8 SE 14.9 29.53 77 -
13:56 48.2 42.1 6.8 SE 14.9 29.53 78 -
14:01 48.0 41.2 6.8 SSE 14.3 29.53 77 -
14:06 48.0 41.0 3.1 SE 11.8 29.53 77 -
14:11 48.0 41.2 6.2 SE 16.2 29.53 77 -
14:16 48.2 41.0 3.1 SE 16.2 29.53 76 -
14:21 48.4 41.2 6.2 SSE 11.8 29.53 76 -
14:26 48.2 41.0 6.8 SSE 9.9 29.53 76 -
14:31 48.2 41.0 6.2 SSE 11.8 29.53 76 -
14:36 48.0 39.9 9.3 SSE 16.2 29.53 75 -
14:41 48.0 41.0 8.1 SSE 16.2 29.53 75 -
14:46 48.0 39.9 5.0 SE 11.2 29.52 75 -

Téléchargez votre copie de cet ensemble de données  à partir de WeatherUnderground

Nos données météo stockées sur Weather Underground